Terminal Aerodrome Forecast
Issued by NWS Shreveport, LA

Home | Current Version | Previous Version | Text Only | Print | Product List | Glossary On
Versions: 1 2 3 4 5 6 7 8 9 10 11 12 13 14 15 16 17 18
000
FTUS44 KSHV 250531
TAFSHV
TAF
KSHV 250531Z 2506/2606 VRB04KT P6SM SCT150 BKN280
     FM250900 14003KT P6SM SCT050 BKN150
      TEMPO 2512/2513 5SM BR BKN035 BKN150
     FM251400 VRB04KT P6SM BKN050
     FM251900 03007KT P6SM VCTS BKN050CB
     FM252200 04007KT P6SM BKN045 OVC100
     FM260000 08007KT P6SM OVC100=

USA.gov is the U.S. government's official web portal to all federal, state and local government web resources and services.